sensor_id;sensor_type;location;lat;lon;timestamp;temperature;humidity
21306;DHT22;10812;51.838;5.838;2022-12-20T00:01:08;9.70;99.90
21306;DHT22;10812;51.838;5.838;2022-12-20T00:03:38;9.70;99.90
21306;DHT22;10812;51.838;5.838;2022-12-20T00:06:07;9.60;99.90
21306;DHT22;10812;51.838;5.838;2022-12-20T00:08:38;9.70;99.90
21306;DHT22;10812;51.838;5.838;2022-12-20T00:11:07;9.70;99.90
21306;DHT22;10812;51.838;5.838;2022-12-20T00:13:36;9.70;99.90
21306;DHT22;10812;51.838;5.838;2022-12-20T00:16:07;9.70;99.90
21306;DHT22;10812;51.838;5.838;2022-12-20T00:18:38;9.70;99.90
21306;DHT22;10812;51.838;5.838;2022-12-20T00:21:09;9.80;99.90
21306;DHT22;10812;51.838;5.838;2022-12-20T00:23:40;9.80;99.90
21306;DHT22;10812;51.838;5.838;2022-12-20T00:26:10;9.80;99.90
21306;DHT22;10812;51.838;5.838;2022-12-20T00:28:40;9.80;99.90
21306;DHT22;10812;51.838;5.838;2022-12-20T00:31:10;9.90;99.90
21306;DHT22;10812;51.838;5.838;2022-12-20T00:33:39;10.00;99.90
21306;DHT22;10812;51.838;5.838;2022-12-20T00:36:08;10.00;99.90
21306;DHT22;10812;51.838;5.838;2022-12-20T00:38:36;10.10;99.90
21306;DHT22;10812;51.838;5.838;2022-12-20T00:41:07;10.10;99.90
21306;DHT22;10812;51.838;5.838;2022-12-20T00:43:37;10.10;99.90
21306;DHT22;10812;51.838;5.838;2022-12-20T00:46:07;10.20;99.90
21306;DHT22;10812;51.838;5.838;2022-12-20T00:48:35;10.20;99.90
21306;DHT22;10812;51.838;5.838;2022-12-20T00:51:05;10.20;99.90
21306;DHT22;10812;51.838;5.838;2022-12-20T00:53:34;10.30;99.90
21306;DHT22;10812;51.838;5.838;2022-12-20T00:56:05;10.30;99.90
21306;DHT22;10812;51.838;5.838;2022-12-20T00:58:34;10.30;99.90
21306;DHT22;10812;51.838;5.838;2022-12-20T01:01:04;10.40;99.90
21306;DHT22;10812;51.838;5.838;2022-12-20T01:03:32;10.40;99.90
21306;DHT22;10812;51.838;5.838;2022-12-20T01:06:01;10.40;99.90
21306;DHT22;10812;51.838;5.838;2022-12-20T01:08:30;10.40;99.90
21306;DHT22;10812;51.838;5.838;2022-12-20T01:11:00;10.50;99.90
21306;DHT22;10812;51.838;5.838;2022-12-20T01:13:30;10.50;99.90
21306;DHT22;10812;51.838;5.838;2022-12-20T01:16:03;10.50;99.90
21306;DHT22;10812;51.838;5.838;2022-12-20T01:18:31;10.50;99.90
21306;DHT22;10812;51.838;5.838;2022-12-20T01:21:01;10.50;99.90
21306;DHT22;10812;51.838;5.838;2022-12-20T01:23:29;10.50;99.90
21306;DHT22;10812;51.838;5.838;2022-12-20T01:25:58;10.60;99.90
21306;DHT22;10812;51.838;5.838;2022-12-20T01:28:27;10.60;99.90
21306;DHT22;10812;51.838;5.838;2022-12-20T01:30:56;10.60;99.90
21306;DHT22;10812;51.838;5.838;2022-12-20T01:33:24;10.60;99.90
21306;DHT22;10812;51.838;5.838;2022-12-20T01:35:56;10.60;99.90
21306;DHT22;10812;51.838;5.838;2022-12-20T01:38:25;10.60;99.90
21306;DHT22;10812;51.838;5.838;2022-12-20T01:40:54;10.70;99.90
21306;DHT22;10812;51.838;5.838;2022-12-20T01:43:24;10.70;99.90
21306;DHT22;10812;51.838;5.838;2022-12-20T01:45:52;10.70;99.90
21306;DHT22;10812;51.838;5.838;2022-12-20T01:48:24;10.60;99.90
21306;DHT22;10812;51.838;5.838;2022-12-20T01:50:53;10.50;99.90
21306;DHT22;10812;51.838;5.838;2022-12-20T01:53:22;10.40;99.90
21306;DHT22;10812;51.838;5.838;2022-12-20T01:55:51;10.40;99.90
21306;DHT22;10812;51.838;5.838;2022-12-20T01:58:20;10.40;99.90
21306;DHT22;10812;51.838;5.838;2022-12-20T02:00:49;10.30;99.90
21306;DHT22;10812;51.838;5.838;2022-12-20T02:03:18;10.20;99.90
21306;DHT22;10812;51.838;5.838;2022-12-20T02:05:47;10.20;99.90
21306;DHT22;10812;51.838;5.838;2022-12-20T02:08:18;10.10;99.90
21306;DHT22;10812;51.838;5.838;2022-12-20T02:11:03;10.10;99.90
21306;DHT22;10812;51.838;5.838;2022-12-20T02:13:40;10.00;99.90
21306;DHT22;10812;51.838;5.838;2022-12-20T02:16:14;10.00;99.90
21306;DHT22;10812;51.838;5.838;2022-12-20T02:18:51;10.00;99.90
21306;DHT22;10812;51.838;5.838;2022-12-20T02:21:26;9.90;99.90
21306;DHT22;10812;51.838;5.838;2022-12-20T02:24:24;9.90;99.90
21306;DHT22;10812;51.838;5.838;2022-12-20T02:30:06;9.80;99.90
21306;DHT22;10812;51.838;5.838;2022-12-20T02:32:38;9.80;99.90
21306;DHT22;10812;51.838;5.838;2022-12-20T02:35:08;9.80;99.90
21306;DHT22;10812;51.838;5.838;2022-12-20T02:37:46;9.80;99.90
21306;DHT22;10812;51.838;5.838;2022-12-20T02:40:17;9.70;99.90
21306;DHT22;10812;51.838;5.838;2022-12-20T02:42:48;9.70;99.90
21306;DHT22;10812;51.838;5.838;2022-12-20T02:45:21;9.70;99.90
21306;DHT22;10812;51.838;5.838;2022-12-20T02:47:53;9.70;99.90
21306;DHT22;10812;51.838;5.838;2022-12-20T02:50:26;9.70;99.90
21306;DHT22;10812;51.838;5.838;2022-12-20T02:52:55;9.70;99.90
21306;DHT22;10812;51.838;5.838;2022-12-20T02:55:31;9.80;99.90
21306;DHT22;10812;51.838;5.838;2022-12-20T02:58:04;9.80;99.90
21306;DHT22;10812;51.838;5.838;2022-12-20T03:06:06;9.70;99.90
21306;DHT22;10812;51.838;5.838;2022-12-20T03:08:34;9.70;99.90
21306;DHT22;10812;51.838;5.838;2022-12-20T03:11:02;9.70;99.90
21306;DHT22;10812;51.838;5.838;2022-12-20T03:13:30;9.80;99.90
21306;DHT22;10812;51.838;5.838;2022-12-20T03:15:58;9.80;99.90
21306;DHT22;10812;51.838;5.838;2022-12-20T03:18:26;9.80;99.90
21306;DHT22;10812;51.838;5.838;2022-12-20T03:20:54;9.80;99.90
21306;DHT22;10812;51.838;5.838;2022-12-20T03:23:23;9.80;99.90
21306;DHT22;10812;51.838;5.838;2022-12-20T03:25:51;9.90;99.90
21306;DHT22;10812;51.838;5.838;2022-12-20T03:28:20;9.90;99.90
21306;DHT22;10812;51.838;5.838;2022-12-20T03:30:48;9.90;99.90
21306;DHT22;10812;51.838;5.838;2022-12-20T03:33:16;9.90;99.90
21306;DHT22;10812;51.838;5.838;2022-12-20T03:39:09;9.90;99.90
21306;DHT22;10812;51.838;5.838;2022-12-20T03:41:37;10.00;99.90
21306;DHT22;10812;51.838;5.838;2022-12-20T03:44:05;9.90;99.90
21306;DHT22;10812;51.838;5.838;2022-12-20T03:46:33;10.00;99.90
21306;DHT22;10812;51.838;5.838;2022-12-20T03:49:01;10.00;99.90
21306;DHT22;10812;51.838;5.838;2022-12-20T03:51:30;10.10;99.90
21306;DHT22;10812;51.838;5.838;2022-12-20T03:53:58;10.10;99.90
21306;DHT22;10812;51.838;5.838;2022-12-20T03:56:27;10.10;99.90
21306;DHT22;10812;51.838;5.838;2022-12-20T03:58:55;10.20;99.90
21306;DHT22;10812;51.838;5.838;2022-12-20T04:01:25;10.10;99.90
21306;DHT22;10812;51.838;5.838;2022-12-20T04:03:54;10.10;99.90
21306;DHT22;10812;51.838;5.838;2022-12-20T04:06:23;10.20;99.90
21306;DHT22;10812;51.838;5.838;2022-12-20T04:08:51;10.10;99.90
21306;DHT22;10812;51.838;5.838;2022-12-20T04:11:19;10.10;99.90
21306;DHT22;10812;51.838;5.838;2022-12-20T04:13:50;10.20;99.90
21306;DHT22;10812;51.838;5.838;2022-12-20T04:16:20;10.20;99.90
21306;DHT22;10812;51.838;5.838;2022-12-20T04:22:29;10.40;99.90
21306;DHT22;10812;51.838;5.838;2022-12-20T04:24:57;10.40;99.90
21306;DHT22;10812;51.838;5.838;2022-12-20T04:27:25;10.40;99.90
21306;DHT22;10812;51.838;5.838;2022-12-20T04:29:55;10.40;99.90
21306;DHT22;10812;51.838;5.838;2022-12-20T04:32:23;10.50;99.90
21306;DHT22;10812;51.838;5.838;2022-12-20T04:34:51;10.50;99.90
21306;DHT22;10812;51.838;5.838;2022-12-20T04:37:19;10.50;99.90
21306;DHT22;10812;51.838;5.838;2022-12-20T04:39:47;10.50;99.90
21306;DHT22;10812;51.838;5.838;2022-12-20T04:42:15;10.50;99.90
21306;DHT22;10812;51.838;5.838;2022-12-20T04:44:43;10.60;99.90
21306;DHT22;10812;51.838;5.838;2022-12-20T04:47:13;10.60;99.90
21306;DHT22;10812;51.838;5.838;2022-12-20T04:49:41;10.60;99.90
21306;DHT22;10812;51.838;5.838;2022-12-20T04:52:09;10.70;99.90
21306;DHT22;10812;51.838;5.838;2022-12-20T04:54:54;10.70;99.90
21306;DHT22;10812;51.838;5.838;2022-12-20T04:57:22;10.70;99.90
21306;DHT22;10812;51.838;5.838;2022-12-20T04:59:51;10.80;99.90
21306;DHT22;10812;51.838;5.838;2022-12-20T05:02:20;10.80;99.90
21306;DHT22;10812;51.838;5.838;2022-12-20T05:04:48;10.80;99.90
21306;DHT22;10812;51.838;5.838;2022-12-20T05:07:16;10.80;99.90
21306;DHT22;10812;51.838;5.838;2022-12-20T05:09:44;10.80;99.90
21306;DHT22;10812;51.838;5.838;2022-12-20T05:12:13;10.90;99.90
21306;DHT22;10812;51.838;5.838;2022-12-20T05:14:41;11.00;99.90
21306;DHT22;10812;51.838;5.838;2022-12-20T05:17:09;11.00;99.90
21306;DHT22;10812;51.838;5.838;2022-12-20T05:19:38;11.00;99.90
21306;DHT22;10812;51.838;5.838;2022-12-20T05:22:06;11.00;99.90
21306;DHT22;10812;51.838;5.838;2022-12-20T05:25:03;10.90;99.90
21306;DHT22;10812;51.838;5.838;2022-12-20T05:27:49;10.80;99.90
21306;DHT22;10812;51.838;5.838;2022-12-20T05:30:17;10.80;99.90
21306;DHT22;10812;51.838;5.838;2022-12-20T05:32:45;10.70;99.90
21306;DHT22;10812;51.838;5.838;2022-12-20T05:35:15;10.70;99.90
21306;DHT22;10812;51.838;5.838;2022-12-20T05:37:43;10.70;99.90
21306;DHT22;10812;51.838;5.838;2022-12-20T05:40:12;10.70;99.90
21306;DHT22;10812;51.838;5.838;2022-12-20T05:42:42;10.70;99.90
21306;DHT22;10812;51.838;5.838;2022-12-20T05:45:10;10.60;99.90
21306;DHT22;10812;51.838;5.838;2022-12-20T05:47:38;10.60;99.90
21306;DHT22;10812;51.838;5.838;2022-12-20T05:50:07;10.60;99.90
21306;DHT22;10812;51.838;5.838;2022-12-20T05:52:45;10.70;99.90
21306;DHT22;10812;51.838;5.838;2022-12-20T05:55:14;10.80;99.90
21306;DHT22;10812;51.838;5.838;2022-12-20T05:57:42;10.80;99.90
21306;DHT22;10812;51.838;5.838;2022-12-20T06:00:11;10.80;99.90
21306;DHT22;10812;51.838;5.838;2022-12-20T06:02:40;10.80;99.90
21306;DHT22;10812;51.838;5.838;2022-12-20T06:05:08;10.80;99.90
21306;DHT22;10812;51.838;5.838;2022-12-20T06:07:36;10.80;99.90
21306;DHT22;10812;51.838;5.838;2022-12-20T06:10:08;10.80;99.90
21306;DHT22;10812;51.838;5.838;2022-12-20T06:12:37;10.80;99.90
21306;DHT22;10812;51.838;5.838;2022-12-20T06:15:06;10.80;99.90
21306;DHT22;10812;51.838;5.838;2022-12-20T06:17:34;10.90;99.90
21306;DHT22;10812;51.838;5.838;2022-12-20T06:20:03;11.00;99.90
21306;DHT22;10812;51.838;5.838;2022-12-20T06:22:32;11.00;99.90
21306;DHT22;10812;51.838;5.838;2022-12-20T06:25:00;11.10;99.90
21306;DHT22;10812;51.838;5.838;2022-12-20T06:27:30;11.10;99.90
21306;DHT22;10812;51.838;5.838;2022-12-20T06:29:58;11.10;99.90
21306;DHT22;10812;51.838;5.838;2022-12-20T06:32:26;11.10;99.90
21306;DHT22;10812;51.838;5.838;2022-12-20T06:34:54;11.10;99.90
21306;DHT22;10812;51.838;5.838;2022-12-20T06:37:22;11.10;99.90
21306;DHT22;10812;51.838;5.838;2022-12-20T06:39:50;11.10;99.90
21306;DHT22;10812;51.838;5.838;2022-12-20T06:42:18;11.10;99.90
21306;DHT22;10812;51.838;5.838;2022-12-20T06:44:48;11.10;99.90
21306;DHT22;10812;51.838;5.838;2022-12-20T06:47:16;11.10;99.90
21306;DHT22;10812;51.838;5.838;2022-12-20T06:49:44;11.10;99.90
21306;DHT22;10812;51.838;5.838;2022-12-20T06:52:12;11.10;99.90
21306;DHT22;10812;51.838;5.838;2022-12-20T06:54:40;11.20;99.90
21306;DHT22;10812;51.838;5.838;2022-12-20T06:57:08;11.10;99.90
21306;DHT22;10812;51.838;5.838;2022-12-20T06:59:36;11.00;99.90
21306;DHT22;10812;51.838;5.838;2022-12-20T07:02:06;11.00;99.90
21306;DHT22;10812;51.838;5.838;2022-12-20T07:04:35;10.90;99.90
21306;DHT22;10812;51.838;5.838;2022-12-20T07:07:04;10.90;99.90
21306;DHT22;10812;51.838;5.838;2022-12-20T07:09:32;10.80;99.90
21306;DHT22;10812;51.838;5.838;2022-12-20T07:12:00;10.90;99.90
21306;DHT22;10812;51.838;5.838;2022-12-20T07:14:29;10.80;99.90
21306;DHT22;10812;51.838;5.838;2022-12-20T07:16:57;10.90;99.90
21306;DHT22;10812;51.838;5.838;2022-12-20T07:19:27;10.90;99.90
21306;DHT22;10812;51.838;5.838;2022-12-20T07:21:55;10.90;99.90
21306;DHT22;10812;51.838;5.838;2022-12-20T07:24:23;10.80;99.90
21306;DHT22;10812;51.838;5.838;2022-12-20T07:26:51;10.90;99.90
21306;DHT22;10812;51.838;5.838;2022-12-20T07:29:19;10.90;99.90
21306;DHT22;10812;51.838;5.838;2022-12-20T07:31:47;11.00;99.90
21306;DHT22;10812;51.838;5.838;2022-12-20T07:34:16;10.90;99.90
21306;DHT22;10812;51.838;5.838;2022-12-20T07:36:46;11.00;99.90
21306;DHT22;10812;51.838;5.838;2022-12-20T07:39:14;10.90;99.90
21306;DHT22;10812;51.838;5.838;2022-12-20T07:41:42;10.90;99.90
21306;DHT22;10812;51.838;5.838;2022-12-20T07:44:10;11.00;99.90
21306;DHT22;10812;51.838;5.838;2022-12-20T07:46:39;11.00;99.90
21306;DHT22;10812;51.838;5.838;2022-12-20T07:49:08;11.00;99.90
21306;DHT22;10812;51.838;5.838;2022-12-20T07:51:38;11.00;99.90
21306;DHT22;10812;51.838;5.838;2022-12-20T07:54:12;11.00;99.90
21306;DHT22;10812;51.838;5.838;2022-12-20T07:56:43;10.90;99.90
21306;DHT22;10812;51.838;5.838;2022-12-20T07:59:14;11.00;99.90
21306;DHT22;10812;51.838;5.838;2022-12-20T08:01:44;11.00;99.90
21306;DHT22;10812;51.838;5.838;2022-12-20T08:04:15;11.10;99.90
21306;DHT22;10812;51.838;5.838;2022-12-20T08:06:47;11.10;99.90
21306;DHT22;10812;51.838;5.838;2022-12-20T08:09:18;11.10;99.90
21306;DHT22;10812;51.838;5.838;2022-12-20T08:11:47;11.10;99.90
21306;DHT22;10812;51.838;5.838;2022-12-20T08:14:17;11.00;99.90
21306;DHT22;10812;51.838;5.838;2022-12-20T08:16:46;11.00;99.90
21306;DHT22;10812;51.838;5.838;2022-12-20T08:19:14;10.90;99.90
21306;DHT22;10812;51.838;5.838;2022-12-20T08:21:42;10.80;99.90
21306;DHT22;10812;51.838;5.838;2022-12-20T08:24:10;10.80;99.90
21306;DHT22;10812;51.838;5.838;2022-12-20T08:26:40;10.80;99.90
21306;DHT22;10812;51.838;5.838;2022-12-20T08:29:09;10.70;99.90
21306;DHT22;10812;51.838;5.838;2022-12-20T08:31:40;10.70;99.90
21306;DHT22;10812;51.838;5.838;2022-12-20T08:34:16;10.80;99.90
21306;DHT22;10812;51.838;5.838;2022-12-20T08:36:44;10.80;99.90
21306;DHT22;10812;51.838;5.838;2022-12-20T08:39:12;10.80;99.90
21306;DHT22;10812;51.838;5.838;2022-12-20T08:41:41;10.80;99.90
21306;DHT22;10812;51.838;5.838;2022-12-20T08:44:10;10.70;99.90
21306;DHT22;10812;51.838;5.838;2022-12-20T08:46:38;10.70;99.90
21306;DHT22;10812;51.838;5.838;2022-12-20T08:49:06;10.70;99.90
21306;DHT22;10812;51.838;5.838;2022-12-20T08:51:34;10.60;99.90
21306;DHT22;10812;51.838;5.838;2022-12-20T08:54:02;10.60;99.90
21306;DHT22;10812;51.838;5.838;2022-12-20T08:56:30;10.60;99.90
21306;DHT22;10812;51.838;5.838;2022-12-20T08:59:00;10.50;99.90
21306;DHT22;10812;51.838;5.838;2022-12-20T09:01:28;10.50;99.90
21306;DHT22;10812;51.838;5.838;2022-12-20T09:03:59;10.50;99.90
21306;DHT22;10812;51.838;5.838;2022-12-20T09:06:28;10.40;99.90
21306;DHT22;10812;51.838;5.838;2022-12-20T09:08:56;10.40;99.90
21306;DHT22;10812;51.838;5.838;2022-12-20T09:11:26;10.40;99.90
21306;DHT22;10812;51.838;5.838;2022-12-20T09:13:56;10.40;99.90
21306;DHT22;10812;51.838;5.838;2022-12-20T09:16:28;10.30;99.90
21306;DHT22;10812;51.838;5.838;2022-12-20T09:18:58;10.30;99.90
21306;DHT22;10812;51.838;5.838;2022-12-20T09:21:32;10.30;99.90
21306;DHT22;10812;51.838;5.838;2022-12-20T09:24:01;10.30;99.90
21306;DHT22;10812;51.838;5.838;2022-12-20T09:26:29;10.30;99.90
21306;DHT22;10812;51.838;5.838;2022-12-20T09:28:58;10.30;99.90
21306;DHT22;10812;51.838;5.838;2022-12-20T09:31:29;10.30;99.90
21306;DHT22;10812;51.838;5.838;2022-12-20T09:33:58;10.30;99.90
21306;DHT22;10812;51.838;5.838;2022-12-20T09:36:28;10.30;99.90
21306;DHT22;10812;51.838;5.838;2022-12-20T09:38:56;10.30;99.90
21306;DHT22;10812;51.838;5.838;2022-12-20T09:41:29;10.30;99.90
21306;DHT22;10812;51.838;5.838;2022-12-20T09:44:03;10.30;99.90
21306;DHT22;10812;51.838;5.838;2022-12-20T09:46:32;10.40;99.90
21306;DHT22;10812;51.838;5.838;2022-12-20T09:49:01;10.40;99.90
21306;DHT22;10812;51.838;5.838;2022-12-20T09:51:49;10.40;99.90
21306;DHT22;10812;51.838;5.838;2022-12-20T09:54:27;10.40;99.90
21306;DHT22;10812;51.838;5.838;2022-12-20T09:57:04;10.40;99.90
21306;DHT22;10812;51.838;5.838;2022-12-20T09:59:34;10.40;99.90
21306;DHT22;10812;51.838;5.838;2022-12-20T10:02:11;10.40;99.90
21306;DHT22;10812;51.838;5.838;2022-12-20T10:05:00;10.40;99.90
21306;DHT22;10812;51.838;5.838;2022-12-20T10:07:37;10.50;99.90
21306;DHT22;10812;51.838;5.838;2022-12-20T10:10:25;10.50;99.90
21306;DHT22;10812;51.838;5.838;2022-12-20T10:13:04;10.50;99.90
21306;DHT22;10812;51.838;5.838;2022-12-20T10:15:39;10.50;99.90
21306;DHT22;10812;51.838;5.838;2022-12-20T10:18:24;10.50;99.90
21306;DHT22;10812;51.838;5.838;2022-12-20T10:20:58;10.40;99.90
21306;DHT22;10812;51.838;5.838;2022-12-20T10:23:34;10.40;99.90
21306;DHT22;10812;51.838;5.838;2022-12-20T10:26:07;10.40;99.90
21306;DHT22;10812;51.838;5.838;2022-12-20T10:28:36;10.40;99.90
21306;DHT22;10812;51.838;5.838;2022-12-20T10:31:07;10.40;99.90
21306;DHT22;10812;51.838;5.838;2022-12-20T10:33:37;10.40;99.90
21306;DHT22;10812;51.838;5.838;2022-12-20T10:36:20;10.50;99.90
21306;DHT22;10812;51.838;5.838;2022-12-20T10:38:51;10.50;99.90
21306;DHT22;10812;51.838;5.838;2022-12-20T10:41:21;10.50;99.90
21306;DHT22;10812;51.838;5.838;2022-12-20T10:43:53;10.60;99.90
21306;DHT22;10812;51.838;5.838;2022-12-20T10:46:24;10.60;99.90
21306;DHT22;10812;51.838;5.838;2022-12-20T10:49:21;10.70;99.90
21306;DHT22;10812;51.838;5.838;2022-12-20T10:51:53;10.60;99.90
21306;DHT22;10812;51.838;5.838;2022-12-20T10:54:23;10.70;99.90
21306;DHT22;10812;51.838;5.838;2022-12-20T10:56:55;10.60;99.90
21306;DHT22;10812;51.838;5.838;2022-12-20T10:59:29;10.60;99.90
21306;DHT22;10812;51.838;5.838;2022-12-20T11:01:58;10.60;99.90
21306;DHT22;10812;51.838;5.838;2022-12-20T11:08:48;10.60;99.90
21306;DHT22;10812;51.838;5.838;2022-12-20T11:11:26;10.60;99.90
21306;DHT22;10812;51.838;5.838;2022-12-20T11:14:12;10.60;99.90
21306;DHT22;10812;51.838;5.838;2022-12-20T11:16:43;10.60;99.90
21306;DHT22;10812;51.838;5.838;2022-12-20T11:19:33;10.60;99.90
21306;DHT22;10812;51.838;5.838;2022-12-20T11:22:16;10.60;99.90
21306;DHT22;10812;51.838;5.838;2022-12-20T11:24:56;10.60;99.90
21306;DHT22;10812;51.838;5.838;2022-12-20T11:27:32;10.60;99.90
21306;DHT22;10812;51.838;5.838;2022-12-20T11:30:11;10.60;99.90
21306;DHT22;10812;51.838;5.838;2022-12-20T11:33:05;10.70;99.90
21306;DHT22;10812;51.838;5.838;2022-12-20T11:35:46;10.60;99.90
21306;DHT22;10812;51.838;5.838;2022-12-20T11:38:27;10.70;99.90
21306;DHT22;10812;51.838;5.838;2022-12-20T11:41:07;10.70;99.90
21306;DHT22;10812;51.838;5.838;2022-12-20T11:44:01;10.70;99.90
21306;DHT22;10812;51.838;5.838;2022-12-20T11:47:19;10.70;99.90
21306;DHT22;10812;51.838;5.838;2022-12-20T11:50:03;10.70;99.90
21306;DHT22;10812;51.838;5.838;2022-12-20T11:52:40;10.70;99.90
21306;DHT22;10812;51.838;5.838;2022-12-20T11:55:17;10.80;99.90
21306;DHT22;10812;51.838;5.838;2022-12-20T11:57:54;10.80;99.90
21306;DHT22;10812;51.838;5.838;2022-12-20T12:00:48;10.80;99.90
21306;DHT22;10812;51.838;5.838;2022-12-20T12:03:22;10.80;99.90
21306;DHT22;10812;51.838;5.838;2022-12-20T12:05:54;10.80;99.90
21306;DHT22;10812;51.838;5.838;2022-12-20T12:08:28;10.80;99.90
21306;DHT22;10812;51.838;5.838;2022-12-20T12:11:01;10.80;99.90
21306;DHT22;10812;51.838;5.838;2022-12-20T12:13:34;10.80;99.90
21306;DHT22;10812;51.838;5.838;2022-12-20T12:16:07;10.80;99.90
21306;DHT22;10812;51.838;5.838;2022-12-20T12:18:37;10.80;99.90
21306;DHT22;10812;51.838;5.838;2022-12-20T12:21:09;10.80;99.90
21306;DHT22;10812;51.838;5.838;2022-12-20T12:23:48;10.80;99.90
21306;DHT22;10812;51.838;5.838;2022-12-20T12:26:23;10.80;99.90
21306;DHT22;10812;51.838;5.838;2022-12-20T12:28:55;10.80;99.90
21306;DHT22;10812;51.838;5.838;2022-12-20T12:31:28;10.80;99.90
21306;DHT22;10812;51.838;5.838;2022-12-20T12:34:08;10.80;99.90
21306;DHT22;10812;51.838;5.838;2022-12-20T12:37:06;10.70;99.90
21306;DHT22;10812;51.838;5.838;2022-12-20T12:43:10;10.80;99.90
21306;DHT22;10812;51.838;5.838;2022-12-20T12:45:46;10.80;99.90
21306;DHT22;10812;51.838;5.838;2022-12-20T12:48:18;10.80;99.90
21306;DHT22;10812;51.838;5.838;2022-12-20T12:50:50;10.80;99.90
21306;DHT22;10812;51.838;5.838;2022-12-20T12:53:21;10.80;99.90
21306;DHT22;10812;51.838;5.838;2022-12-20T12:55:51;10.80;99.90
21306;DHT22;10812;51.838;5.838;2022-12-20T12:58:40;10.80;99.90
21306;DHT22;10812;51.838;5.838;2022-12-20T13:01:46;10.70;99.90
21306;DHT22;10812;51.838;5.838;2022-12-20T13:04:28;10.80;99.90
21306;DHT22;10812;51.838;5.838;2022-12-20T13:07:01;10.80;99.90
21306;DHT22;10812;51.838;5.838;2022-12-20T13:09:39;10.80;99.90
21306;DHT22;10812;51.838;5.838;2022-12-20T13:12:52;10.70;99.90
21306;DHT22;10812;51.838;5.838;2022-12-20T13:18:34;10.80;99.90
21306;DHT22;10812;51.838;5.838;2022-12-20T13:21:29;10.70;99.90
21306;DHT22;10812;51.838;5.838;2022-12-20T13:27:29;10.80;99.90
21306;DHT22;10812;51.838;5.838;2022-12-20T13:30:00;10.70;99.90
21306;DHT22;10812;51.838;5.838;2022-12-20T13:35:58;10.70;99.90
21306;DHT22;10812;51.838;5.838;2022-12-20T13:38:57;10.70;99.90
21306;DHT22;10812;51.838;5.838;2022-12-20T13:41:38;10.80;99.90
21306;DHT22;10812;51.838;5.838;2022-12-20T13:44:34;10.70;99.90
21306;DHT22;10812;51.838;5.838;2022-12-20T13:47:28;10.70;99.90
21306;DHT22;10812;51.838;5.838;2022-12-20T13:50:20;10.70;99.90
21306;DHT22;10812;51.838;5.838;2022-12-20T13:52:51;10.70;99.90
21306;DHT22;10812;51.838;5.838;2022-12-20T13:55:30;10.70;99.90
21306;DHT22;10812;51.838;5.838;2022-12-20T13:58:04;10.70;99.90
21306;DHT22;10812;51.838;5.838;2022-12-20T14:00:33;10.70;99.90
21306;DHT22;10812;51.838;5.838;2022-12-20T14:03:01;10.70;99.90
21306;DHT22;10812;51.838;5.838;2022-12-20T14:05:36;10.70;99.90
21306;DHT22;10812;51.838;5.838;2022-12-20T14:08:08;10.70;99.90
21306;DHT22;10812;51.838;5.838;2022-12-20T14:10:37;10.70;99.90
21306;DHT22;10812;51.838;5.838;2022-12-20T14:13:19;10.70;99.90
21306;DHT22;10812;51.838;5.838;2022-12-20T14:15:48;10.70;99.90
21306;DHT22;10812;51.838;5.838;2022-12-20T14:18:18;10.70;99.90
21306;DHT22;10812;51.838;5.838;2022-12-20T14:20:49;10.70;99.90
21306;DHT22;10812;51.838;5.838;2022-12-20T14:23:21;10.70;99.90
21306;DHT22;10812;51.838;5.838;2022-12-20T14:25:52;10.70;99.90
21306;DHT22;10812;51.838;5.838;2022-12-20T14:28:28;10.70;99.90
21306;DHT22;10812;51.838;5.838;2022-12-20T14:30:58;10.60;99.90
21306;DHT22;10812;51.838;5.838;2022-12-20T14:33:34;10.60;99.90
21306;DHT22;10812;51.838;5.838;2022-12-20T14:36:16;10.60;99.90
21306;DHT22;10812;51.838;5.838;2022-12-20T14:38:48;10.60;99.90
21306;DHT22;10812;51.838;5.838;2022-12-20T14:41:30;10.60;99.90
21306;DHT22;10812;51.838;5.838;2022-12-20T14:44:03;10.60;99.90
21306;DHT22;10812;51.838;5.838;2022-12-20T14:46:39;10.60;99.90
21306;DHT22;10812;51.838;5.838;2022-12-20T14:49:21;10.60;99.90
21306;DHT22;10812;51.838;5.838;2022-12-20T14:51:52;10.60;99.90
21306;DHT22;10812;51.838;5.838;2022-12-20T14:54:25;10.60;99.90
21306;DHT22;10812;51.838;5.838;2022-12-20T14:57:22;10.60;99.90
21306;DHT22;10812;51.838;5.838;2022-12-20T15:00:00;10.60;99.90
21306;DHT22;10812;51.838;5.838;2022-12-20T15:02:34;10.50;99.90
21306;DHT22;10812;51.838;5.838;2022-12-20T15:05:08;10.50;99.90
21306;DHT22;10812;51.838;5.838;2022-12-20T15:07:39;10.50;99.90
21306;DHT22;10812;51.838;5.838;2022-12-20T15:10:09;10.50;99.90
21306;DHT22;10812;51.838;5.838;2022-12-20T15:12:37;10.50;99.90
21306;DHT22;10812;51.838;5.838;2022-12-20T15:15:12;10.50;99.90
21306;DHT22;10812;51.838;5.838;2022-12-20T15:17:55;10.50;99.90
21306;DHT22;10812;51.838;5.838;2022-12-20T15:20:23;10.40;99.90
21306;DHT22;10812;51.838;5.838;2022-12-20T15:22:51;10.40;99.90
21306;DHT22;10812;51.838;5.838;2022-12-20T15:25:21;10.40;99.90
21306;DHT22;10812;51.838;5.838;2022-12-20T15:27:49;10.40;99.90
21306;DHT22;10812;51.838;5.838;2022-12-20T15:30:17;10.40;99.90
21306;DHT22;10812;51.838;5.838;2022-12-20T15:32:46;10.40;99.90
21306;DHT22;10812;51.838;5.838;2022-12-20T15:35:21;10.40;99.90
21306;DHT22;10812;51.838;5.838;2022-12-20T15:37:50;10.40;99.90
21306;DHT22;10812;51.838;5.838;2022-12-20T15:40:18;10.40;99.90
21306;DHT22;10812;51.838;5.838;2022-12-20T15:42:48;10.40;99.90
21306;DHT22;10812;51.838;5.838;2022-12-20T15:45:16;10.40;99.90
21306;DHT22;10812;51.838;5.838;2022-12-20T15:47:44;10.40;99.90
21306;DHT22;10812;51.838;5.838;2022-12-20T15:50:12;10.40;99.90
21306;DHT22;10812;51.838;5.838;2022-12-20T15:52:40;10.30;99.90
21306;DHT22;10812;51.838;5.838;2022-12-20T15:55:10;10.30;99.90
21306;DHT22;10812;51.838;5.838;2022-12-20T15:57:38;10.30;99.90
21306;DHT22;10812;51.838;5.838;2022-12-20T16:00:10;10.30;99.90
21306;DHT22;10812;51.838;5.838;2022-12-20T16:02:39;10.30;99.90
21306;DHT22;10812;51.838;5.838;2022-12-20T16:05:10;10.30;99.90
21306;DHT22;10812;51.838;5.838;2022-12-20T16:07:39;10.30;99.90
21306;DHT22;10812;51.838;5.838;2022-12-20T16:10:11;10.30;99.90
21306;DHT22;10812;51.838;5.838;2022-12-20T16:12:40;10.30;99.90
21306;DHT22;10812;51.838;5.838;2022-12-20T16:15:18;10.30;99.90
21306;DHT22;10812;51.838;5.838;2022-12-20T16:17:47;10.30;99.90
21306;DHT22;10812;51.838;5.838;2022-12-20T16:20:16;10.30;99.90
21306;DHT22;10812;51.838;5.838;2022-12-20T16:22:45;10.30;99.90
21306;DHT22;10812;51.838;5.838;2022-12-20T16:25:23;10.30;99.90
21306;DHT22;10812;51.838;5.838;2022-12-20T16:27:52;10.20;99.90
21306;DHT22;10812;51.838;5.838;2022-12-20T16:30:22;10.20;99.90
21306;DHT22;10812;51.838;5.838;2022-12-20T16:32:51;10.20;99.90
21306;DHT22;10812;51.838;5.838;2022-12-20T16:35:23;10.20;99.90
21306;DHT22;10812;51.838;5.838;2022-12-20T16:37:54;10.30;99.90